Time;durP1;ratioP1;P1;durP2;ratioP2;P2;SDS_P1;SDS_P2;PMS_P1;PMS_P2;Temp;Humidity;BMP_temperature;BMP_pressure;BME280_temperature;BME280_humidity;BME280_pressure;Samples;Min_cycle;Max_cycle;Signal;HPM_P1;HPM_P2
2021/09/25 00:01:47;;;;;;;15.60;10.45;;;409.80;2355.20;;;;;;5109600;28;20103;-76
2021/09/25 00:04:13;;;;;;;14.52;10.68;;;409.80;2355.20;;;;;;5109581;28;20103;-76
2021/09/25 00:06:39;;;;;;;23.77;11.85;;;409.80;2355.20;;;;;;5108919;28;20036;-76
2021/09/25 00:09:04;;;;;;;15.15;11.63;;;409.80;2355.20;;;;;;5100887;28;20020;-76
2021/09/25 00:11:31;;;;;;;16.52;10.38;;;409.80;2355.20;;;;;;5100975;28;20027;-77
2021/09/25 00:13:57;;;;;;;25.42;9.77;;;409.80;2355.20;;;;;;5088676;28;20399;-77
2021/09/25 00:16:26;;;;;;;12.60;9.23;;;409.80;2355.20;;;;;;5107656;28;20023;-77
2021/09/25 00:18:57;;;;;;;13.75;9.55;;;409.80;2355.20;;;;;;5123212;27;20475;-77
2021/09/25 00:21:23;;;;;;;13.38;9.93;;;409.80;2355.20;;;;;;5091474;28;20019;-77
2021/09/25 00:23:49;;;;;;;13.57;10.02;;;409.80;2355.20;;;;;;5089146;28;20511;-76
2021/09/25 00:26:15;;;;;;;13.43;10.45;;;409.80;2355.20;;;;;;5089477;28;20023;-77
2021/09/25 00:28:41;;;;;;;16.30;11.07;;;409.60;2355.20;;;;;;5105418;28;20032;-77
2021/09/25 00:31:06;;;;;;;23.10;10.77;;;409.60;2355.20;;;;;;5110335;28;20020;-76
2021/09/25 00:33:32;;;;;;;14.55;9.95;;;384.90;2329.60;;;;;;5120539;27;20487;-76
2021/09/25 00:35:58;;;;;;;15.13;10.35;;;384.90;2329.60;;;;;;5089367;28;20860;-76
2021/09/25 00:38:24;;;;;;;15.02;9.90;;;409.60;2355.20;;;;;;5106152;28;20028;-77
2021/09/25 00:40:50;;;;;;;13.82;9.70;;;409.60;2355.20;;;;;;5105811;28;20031;-76
2021/09/25 00:43:16;;;;;;;15.02;10.27;;;409.60;2355.20;;;;;;5096479;28;20450;-75
2021/09/25 00:45:42;;;;;;;14.30;9.95;;;384.90;2329.60;;;;;;5109347;28;20016;-76
2021/09/25 00:48:07;;;;;;;14.10;10.02;;;384.90;2329.60;;;;;;5110489;28;20020;-76
2021/09/25 00:50:34;;;;;;;17.52;10.90;;;384.90;2329.60;;;;;;5111298;28;20027;-76
2021/09/25 00:53:00;;;;;;;14.50;10.60;;;384.90;2329.60;;;;;;5111792;28;20030;-75
2021/09/25 00:55:26;;;;;;;15.25;10.90;;;384.90;2329.60;;;;;;5111357;28;20298;-75
2021/09/25 00:58:01;;;;;;;17.95;10.57;;;409.60;2355.20;;;;;;5111376;28;20388;-75
2021/09/25 01:00:28;;;;;;;14.10;10.70;;;409.60;2355.20;;;;;;5096744;28;20074;-76
2021/09/25 01:02:54;;;;;;;13.95;10.25;;;409.60;2355.20;;;;;;5109195;28;20020;-75
2021/09/25 01:05:21;;;;;;;17.95;11.57;;;409.60;2355.20;;;;;;5110146;28;20055;-75
2021/09/25 01:07:48;;;;;;;15.65;11.23;;;409.60;2355.20;;;;;;5080178;28;20028;-76
2021/09/25 01:10:15;;;;;;;15.43;12.02;;;409.60;2355.20;;;;;;5111299;28;20019;-76
2021/09/25 01:12:41;;;;;;;15.02;10.30;;;409.60;2355.20;;;;;;5102821;28;20099;-76
2021/09/25 01:15:08;;;;;;;17.90;10.60;;;409.60;2355.20;;;;;;5095668;28;20020;-76
2021/09/25 01:17:34;;;;;;;16.60;11.35;;;384.90;2329.60;;;;;;5113089;28;20028;-77
2021/09/25 01:20:00;;;;;;;15.90;11.05;;;409.60;2355.20;;;;;;5113762;28;20533;-76
2021/09/25 01:22:29;;;;;;;17.38;12.45;;;409.60;2355.20;;;;;;5127546;27;20024;-76
2021/09/25 01:24:56;;;;;;;15.32;11.10;;;409.60;2355.20;;;;;;5113656;28;20042;-76
2021/09/25 01:27:21;;;;;;;16.77;11.50;;;409.60;2355.20;;;;;;5092024;28;20543;-76
2021/09/25 01:29:47;;;;;;;23.58;13.35;;;409.60;2355.20;;;;;;5100668;28;20055;-76
2021/09/25 01:32:14;;;;;;;18.77;12.73;;;409.60;2355.20;;;;;;5095257;28;20020;-75
2021/09/25 01:34:40;;;;;;;16.35;12.02;;;409.60;2355.20;;;;;;5098584;28;20055;-76
2021/09/25 01:37:06;;;;;;;17.17;11.20;;;409.60;2355.20;;;;;;5101112;28;20498;-76
2021/09/25 01:39:32;;;;;;;18.95;9.93;;;409.60;2355.20;;;;;;5092588;28;20027;-76
2021/09/25 01:42:01;;;;;;;15.98;10.82;;;409.70;2355.20;;;;;;5113904;28;20028;-76
2021/09/25 01:44:27;;;;;;;17.85;11.70;;;409.70;2355.20;;;;;;5113521;28;20057;-75
2021/09/25 01:46:54;;;;;;;19.65;11.68;;;409.70;2355.20;;;;;;5095581;28;20023;-76
2021/09/25 01:49:21;;;;;;;16.60;12.18;;;409.70;2355.20;;;;;;5094787;28;20395;-75
2021/09/25 01:51:47;;;;;;;17.40;11.18;;;409.80;2355.20;;;;;;5095424;28;20376;-76
2021/09/25 01:54:15;;;;;;;17.05;10.50;;;409.80;2355.20;;;;;;5113358;28;20027;-76
2021/09/25 01:56:41;;;;;;;15.98;10.70;;;409.80;2355.20;;;;;;5113206;28;20011;-76
2021/09/25 01:59:07;;;;;;;17.23;10.98;;;409.90;2355.20;;;;;;5095459;28;20044;-76
2021/09/25 02:01:33;;;;;;;13.70;10.30;;;409.90;2355.20;;;;;;5094794;28;20019;-76
2021/09/25 02:03:59;;;;;;;17.67;10.98;;;410.00;2355.20;;;;;;5095364;28;20024;-76
2021/09/25 02:06:26;;;;;;;15.85;10.82;;;409.90;2355.20;;;;;;5094440;28;20062;-76
2021/09/25 02:08:51;;;;;;;17.63;11.82;;;410.00;2355.20;;;;;;5113448;28;20395;-76
2021/09/25 02:11:17;;;;;;;15.85;10.73;;;410.00;2355.20;;;;;;5113188;28;20023;-76
2021/09/25 02:13:44;;;;;;;16.77;10.88;;;410.10;2355.20;;;;;;5117408;27;20023;-76
2021/09/25 02:16:10;;;;;;;18.85;11.23;;;410.10;2355.20;;;;;;5112861;28;20020;-76
2021/09/25 02:18:36;;;;;;;16.52;11.32;;;410.10;2355.20;;;;;;5112984;28;20019;-76
2021/09/25 02:21:03;;;;;;;15.95;10.32;;;410.20;2355.20;;;;;;5112980;28;20046;-77
2021/09/25 02:23:32;;;;;;;17.67;11.68;;;410.30;2355.20;;;;;;5088058;28;20454;-77
2021/09/25 02:25:59;;;;;;;24.92;11.80;;;410.20;2355.20;;;;;;5087619;28;20031;-77
2021/09/25 02:28:24;;;;;;;19.27;13.00;;;410.20;2355.20;;;;;;5094337;28;20024;-77
2021/09/25 02:30:50;;;;;;;15.00;11.60;;;410.20;2355.20;;;;;;5100081;28;20103;-77
2021/09/25 02:33:16;;;;;;;19.25;11.55;;;410.10;2355.20;;;;;;5092924;28;20436;-77
2021/09/25 02:35:42;;;;;;;20.92;11.98;;;410.20;2355.20;;;;;;5094656;28;20118;-77
2021/09/25 02:38:08;;;;;;;18.63;10.88;;;410.10;2355.20;;;;;;5112438;28;20123;-77
2021/09/25 02:40:34;;;;;;;18.98;11.85;;;410.10;2355.20;;;;;;5122178;27;20046;-77
2021/09/25 02:43:00;;;;;;;16.75;12.05;;;410.10;2355.20;;;;;;5114582;27;20531;-77
2021/09/25 02:45:26;;;;;;;17.92;10.65;;;410.10;2355.20;;;;;;5133015;27;20027;-77
2021/09/25 02:47:52;;;;;;;18.83;12.50;;;410.10;2355.20;;;;;;5106945;27;20090;-77
2021/09/25 02:50:18;;;;;;;19.83;13.05;;;410.10;2355.20;;;;;;5087604;28;20036;-77
2021/09/25 02:52:45;;;;;;;20.77;13.77;;;410.10;2355.20;;;;;;5103598;28;20024;-77
2021/09/25 02:55:12;;;;;;;18.45;12.48;;;410.10;2355.20;;;;;;5079298;28;20149;-77
2021/09/25 02:57:37;;;;;;;18.85;12.65;;;410.10;2355.20;;;;;;5112587;28;20112;-77
2021/09/25 03:00:07;;;;;;;17.80;12.48;;;410.10;2355.20;;;;;;5112245;28;20069;-76
2021/09/25 03:02:33;;;;;;;21.92;14.32;;;410.00;2355.20;;;;;;5120581;27;20077;-76
2021/09/25 03:04:59;;;;;;;22.48;12.27;;;410.00;2355.20;;;;;;5099558;28;20450;-76
2021/09/25 03:07:24;;;;;;;17.23;12.25;;;410.00;2355.20;;;;;;5111933;28;20028;-77
2021/09/25 03:09:50;;;;;;;21.95;11.38;;;410.00;2355.20;;;;;;5094531;28;20024;-76
2021/09/25 03:12:16;;;;;;;21.05;12.50;;;410.00;2355.20;;;;;;5108650;28;20031;-76
2021/09/25 03:14:42;;;;;;;16.73;12.20;;;409.90;2355.20;;;;;;5101978;28;20023;-76
2021/09/25 03:17:08;;;;;;;15.45;10.50;;;409.90;2355.20;;;;;;5111886;28;20030;-76
2021/09/25 03:19:33;;;;;;;21.63;12.02;;;410.00;2355.20;;;;;;5120278;28;20047;-76
2021/09/25 03:21:59;;;;;;;16.90;10.65;;;409.90;2355.20;;;;;;5132551;28;20031;-76
2021/09/25 03:24:25;;;;;;;13.98;9.75;;;410.00;2355.20;;;;;;5121725;28;20149;-77
2021/09/25 03:26:51;;;;;;;13.65;11.20;;;410.00;2355.20;;;;;;5103546;28;20043;-77
2021/09/25 03:29:17;;;;;;;15.45;9.82;;;410.00;2355.20;;;;;;5112364;28;20032;-77
2021/09/25 03:31:42;;;;;;;17.02;11.38;;;410.10;2355.20;;;;;;5093325;28;20059;-77
2021/09/25 03:34:08;;;;;;;14.02;9.80;;;410.10;2355.20;;;;;;5104794;28;20028;-77
2021/09/25 03:36:34;;;;;;;14.90;9.95;;;410.10;2355.20;;;;;;5108193;28;20079;-77
2021/09/25 03:39:00;;;;;;;14.93;10.30;;;410.00;2355.20;;;;;;5093540;28;20024;-77
2021/09/25 03:41:26;;;;;;;15.15;10.05;;;410.00;2355.20;;;;;;5112284;28;20019;-77
2021/09/25 03:43:52;;;;;;;15.93;9.27;;;410.00;2355.20;;;;;;5106930;28;20024;-77
2021/09/25 03:46:19;;;;;;;12.43;9.73;;;410.10;2355.20;;;;;;5099301;28;20020;-77
2021/09/25 03:48:46;;;;;;;11.55;9.23;;;409.90;2355.20;;;;;;5111973;28;20028;-77
2021/09/25 03:51:12;;;;;;;12.25;8.95;;;409.90;2355.20;;;;;;5090134;28;20059;-77
2021/09/25 03:53:38;;;;;;;11.90;8.25;;;409.80;2355.20;;;;;;5108016;28;20051;-77
2021/09/25 03:56:07;;;;;;;12.40;8.93;;;409.80;2355.20;;;;;;5108360;28;20422;-77
2021/09/25 03:58:43;;;;;;;11.32;8.77;;;409.80;2355.20;;;;;;5090022;28;20026;-77
2021/09/25 04:01:11;;;;;;;12.10;9.52;;;409.80;2355.20;;;;;;5093606;28;20035;-77
2021/09/25 04:03:37;;;;;;;12.88;9.60;;;409.80;2355.20;;;;;;5108504;28;20024;-77
2021/09/25 04:06:03;;;;;;;14.45;9.25;;;409.80;2355.20;;;;;;5123455;28;20043;-76
2021/09/25 04:08:33;;;;;;;12.07;9.35;;;409.70;2355.20;;;;;;5093607;28;20032;-77
2021/09/25 04:10:59;;;;;;;14.70;9.38;;;409.70;2355.20;;;;;;5107561;28;20065;-77
2021/09/25 04:13:24;;;;;;;11.52;8.73;;;409.60;2355.20;;;;;;5095517;28;20047;-78
2021/09/25 04:15:50;;;;;;;11.63;9.35;;;409.60;2355.20;;;;;;5111544;28;20468;-77
2021/09/25 04:18:16;;;;;;;13.63;8.55;;;409.60;2355.20;;;;;;5131003;27;20159;-77
2021/09/25 04:20:42;;;;;;;10.15;8.10;;;384.90;2329.60;;;;;;5096796;28;20114;-77
2021/09/25 04:23:08;;;;;;;10.57;8.63;;;384.90;2329.60;;;;;;5096771;28;20011;-77
2021/09/25 04:25:33;;;;;;;21.90;8.88;;;384.90;2329.60;;;;;;5097213;28;20028;-77
2021/09/25 04:28:04;;;;;;;13.52;8.73;;;384.90;2329.60;;;;;;5096733;28;20027;-77
2021/09/25 04:30:31;;;;;;;11.20;8.32;;;384.90;2329.60;;;;;;5097141;28;20388;-76
2021/09/25 04:32:57;;;;;;;12.93;8.35;;;384.90;2329.60;;;;;;5114344;28;20062;-76
2021/09/25 04:35:22;;;;;;;13.23;8.23;;;384.90;2329.60;;;;;;5120192;27;20073;-77
2021/09/25 04:37:48;;;;;;;12.43;7.35;;;384.90;2329.60;;;;;;5112149;28;20472;-75
2021/09/25 04:40:14;;;;;;;12.55;8.30;;;384.90;2329.60;;;;;;5094605;28;20016;-75
2021/09/25 04:42:40;;;;;;;9.35;7.68;;;384.90;2329.60;;;;;;5110363;28;20027;-75
2021/09/25 04:45:06;;;;;;;14.63;8.05;;;384.90;2329.60;;;;;;5110665;28;20039;-75
2021/09/25 04:47:32;;;;;;;12.05;9.05;;;384.80;2329.60;;;;;;5098561;28;20020;-75
2021/09/25 04:49:57;;;;;;;12.57;9.00;;;384.70;2329.60;;;;;;5089144;28;20032;-77
2021/09/25 04:52:23;;;;;;;13.65;8.93;;;384.70;2329.60;;;;;;5094438;28;20032;-77
2021/09/25 04:54:49;;;;;;;12.73;9.40;;;384.70;2329.60;;;;;;5100046;28;20511;-78
2021/09/25 04:57:15;;;;;;;11.27;8.13;;;384.70;2329.60;;;;;;5114931;28;20027;-77
2021/09/25 04:59:40;;;;;;;12.68;9.75;;;384.70;2329.60;;;;;;5112346;28;20028;-77
2021/09/25 05:02:06;;;;;;;16.08;8.35;;;384.70;2329.60;;;;;;5114845;28;20070;-77
2021/09/25 05:04:32;;;;;;;12.25;9.15;;;384.70;2329.60;;;;;;5113349;28;20050;-77
2021/09/25 05:06:58;;;;;;;11.50;9.13;;;384.80;2329.60;;;;;;5114581;28;20034;-77
2021/09/25 05:09:23;;;;;;;11.13;8.38;;;384.90;2329.60;;;;;;5095015;28;20024;-78
2021/09/25 05:11:49;;;;;;;12.32;9.82;;;384.90;2329.60;;;;;;5113008;28;20031;-78
2021/09/25 05:14:15;;;;;;;11.32;9.32;;;384.90;2329.60;;;;;;5096120;28;20032;-77
2021/09/25 05:16:41;;;;;;;13.48;9.05;;;409.60;2355.20;;;;;;5095986;28;20049;-77
2021/09/25 05:19:06;;;;;;;12.68;9.57;;;409.60;2355.20;;;;;;5114412;28;20016;-77
2021/09/25 05:21:32;;;;;;;14.05;9.43;;;409.60;2355.20;;;;;;5129932;27;20027;-76
2021/09/25 05:23:58;;;;;;;11.70;8.02;;;409.70;2355.20;;;;;;5130136;27;20015;-77
2021/09/25 05:26:24;;;;;;;12.13;9.75;;;409.80;2355.20;;;;;;5095259;28;20433;-77
2021/09/25 05:28:50;;;;;;;13.90;10.15;;;409.80;2355.20;;;;;;5114226;28;20031;-77
2021/09/25 05:31:16;;;;;;;13.82;10.02;;;409.90;2355.20;;;;;;5095441;28;20031;-76
2021/09/25 05:33:42;;;;;;;13.55;9.95;;;410.00;2355.20;;;;;;5126393;27;20020;-80
2021/09/25 05:36:07;;;;;;;12.68;8.95;;;410.00;2355.20;;;;;;5119484;27;20019;-79
2021/09/25 05:38:33;;;;;;;12.80;8.52;;;410.10;2355.20;;;;;;5124095;27;20468;-79
2021/09/25 05:40:59;;;;;;;14.30;10.38;;;410.20;2355.20;;;;;;5115603;27;20099;-76
2021/09/25 05:43:25;;;;;;;16.17;10.77;;;410.20;2355.20;;;;;;5125608;27;20106;-76
2021/09/25 05:45:50;;;;;;;15.30;11.35;;;410.30;2355.20;;;;;;5095256;28;20422;-76
2021/09/25 05:48:16;;;;;;;14.45;10.95;;;410.30;2355.20;;;;;;5094807;28;20530;-77
2021/09/25 05:50:42;;;;;;;13.23;10.10;;;410.40;2355.20;;;;;;5088002;28;20038;-76
2021/09/25 05:53:08;;;;;;;18.08;9.77;;;410.40;2355.20;;;;;;5089101;28;20026;-76
2021/09/25 05:55:33;;;;;;;13.45;9.02;;;410.40;2355.20;;;;;;5086814;28;20114;-76
2021/09/25 05:58:02;;;;;;;13.10;9.40;;;410.50;2355.20;;;;;;5091534;28;20110;-76
2021/09/25 06:00:28;;;;;;;13.77;9.27;;;435.20;2355.20;;;;;;5091782;28;20012;-76
2021/09/25 06:02:54;;;;;;;9.30;8.00;;;435.20;2355.20;;;;;;5086176;28;20055;-76
2021/09/25 06:05:20;;;;;;;10.38;8.35;;;435.20;2355.20;;;;;;5107086;28;20035;-77
2021/09/25 06:07:46;;;;;;;13.10;9.38;;;435.20;2355.20;;;;;;5081889;28;20154;-77
2021/09/25 06:10:12;;;;;;;10.50;8.10;;;435.40;2355.20;;;;;;5104282;28;20052;-76
2021/09/25 06:12:38;;;;;;;9.90;8.90;;;435.50;2355.20;;;;;;5085914;28;20059;-76
2021/09/25 06:15:04;;;;;;;10.02;8.13;;;435.50;2355.20;;;;;;5109312;28;20437;-76
2021/09/25 06:17:30;;;;;;;11.30;8.65;;;435.70;2355.20;;;;;;5087173;28;20027;-76
2021/09/25 06:19:56;;;;;;;11.40;7.90;;;435.70;2355.20;;;;;;5107620;28;20016;-76
2021/09/25 06:22:22;;;;;;;10.80;8.27;;;435.80;2355.20;;;;;;5105432;28;20429;-76
2021/09/25 06:24:48;;;;;;;12.02;8.43;;;435.90;2355.20;;;;;;5098078;28;20027;-76
2021/09/25 06:27:13;;;;;;;10.23;8.10;;;436.00;2355.20;;;;;;5084714;28;20548;-76
2021/09/25 06:29:40;;;;;;;13.80;10.88;;;460.80;2380.80;;;;;;5102490;28;20115;-76
2021/09/25 06:32:06;;;;;;;10.18;7.72;;;461.00;2380.80;;;;;;5084872;28;20035;-75
2021/09/25 06:34:32;;;;;;;12.43;8.13;;;461.10;2380.80;;;;;;5105886;28;20495;-75
2021/09/25 06:36:58;;;;;;;8.50;7.32;;;461.30;2380.80;;;;;;5085620;28;20061;-75
2021/09/25 06:39:24;;;;;;;11.20;7.35;;;461.40;2380.80;;;;;;5080300;28;20060;-76
2021/09/25 06:41:50;;;;;;;11.50;7.88;;;461.50;2380.80;;;;;;5088991;28;20016;-76
2021/09/25 06:44:16;;;;;;;11.70;7.38;;;461.70;2380.80;;;;;;5111937;27;20020;-76
2021/09/25 06:46:41;;;;;;;10.00;7.28;;;486.40;2380.80;;;;;;5101710;28;20023;-76
2021/09/25 06:49:07;;;;;;;9.23;8.15;;;486.60;2380.80;;;;;;5100441;28;20043;-76
2021/09/25 06:51:33;;;;;;;9.65;6.90;;;486.90;2380.80;;;;;;5104394;28;20134;-76
2021/09/25 06:53:59;;;;;;;8.65;6.82;;;487.00;2380.80;;;;;;5100443;28;20408;-76
2021/09/25 06:56:25;;;;;;;12.35;7.07;;;487.10;2380.80;;;;;;5083772;28;20778;-76
2021/09/25 06:58:51;;;;;;;8.32;7.07;;;512.00;2380.80;;;;;;5115583;27;20028;-79
2021/09/25 07:01:17;;;;;;;8.73;6.53;;;512.20;2380.80;;;;;;5085898;28;20024;-79
2021/09/25 07:03:43;;;;;;;9.52;6.78;;;512.30;2380.80;;;;;;5103816;28;20098;-79
2021/09/25 07:06:09;;;;;;;10.77;8.43;;;512.50;2380.80;;;;;;5063266;28;20040;-81
2021/09/25 07:08:34;;;;;;;8.50;6.50;;;512.60;2380.80;;;;;;5065792;28;20082;-83
2021/09/25 07:11:02;;;;;;;7.40;6.22;;;512.90;2380.80;;;;;;5068037;28;20049;-82
2021/09/25 07:13:27;;;;;;;11.27;6.03;;;537.70;2406.40;;;;;;5063321;28;20027;-80
2021/09/25 07:15:53;;;;;;;11.18;7.50;;;538.00;2406.40;;;;;;5064682;28;20123;-77
2021/09/25 07:18:20;;;;;;;12.02;7.50;;;538.10;2406.40;;;;;;5061911;28;20089;-78
2021/09/25 07:20:46;;;;;;;14.77;7.40;;;538.20;2406.40;;;;;;5063779;28;20078;-77
2021/09/25 07:23:12;;;;;;;9.00;7.00;;;538.50;2406.40;;;;;;5062982;28;20431;-77
2021/09/25 07:25:39;;;;;;;7.72;6.63;;;563.30;2432.00;;;;;;5062437;28;20028;-75
2021/09/25 07:28:06;;;;;;;10.02;6.93;;;563.30;2432.00;;;;;;5061062;28;20033;-75
2021/09/25 07:30:36;;;;;;;8.75;6.55;;;563.50;2432.00;;;;;;5059066;28;20032;-75
2021/09/25 07:33:05;;;;;;;6.88;5.28;;;563.70;2432.00;;;;;;5063726;28;20086;-76
2021/09/25 07:35:34;;;;;;;8.07;6.28;;;564.00;2432.00;;;;;;5054808;28;20043;-76
2021/09/25 07:38:01;;;;;;;9.13;5.07;;;564.00;2432.00;;;;;;5067782;28;20044;-77
2021/09/25 07:40:27;;;;;;;8.80;5.45;;;588.80;2432.00;;;;;;5057481;28;20047;-78
2021/09/25 07:42:53;;;;;;;8.77;5.28;;;588.90;2432.00;;;;;;5058599;28;20469;-77
2021/09/25 07:45:19;;;;;;;14.95;11.30;;;589.00;2432.00;;;;;;5061379;28;20035;-78
2021/09/25 07:47:45;;;;;;;12.23;6.13;;;589.20;2432.00;;;;;;5057601;28;20529;-79
2021/09/25 07:50:11;;;;;;;8.73;6.25;;;589.30;2432.00;;;;;;5063511;28;20480;-80
2021/09/25 07:52:39;;;;;;;10.10;7.40;;;589.70;2432.00;;;;;;5063449;28;20035;-78
2021/09/25 07:55:07;;;;;;;11.20;6.13;;;614.60;2432.00;;;;;;5062232;28;20440;-79
2021/09/25 07:57:32;;;;;;;9.32;6.03;;;614.70;2432.00;;;;;;5061689;28;20035;-79
2021/09/25 07:59:58;;;;;;;10.50;5.03;;;614.90;2432.00;;;;;;5065136;28;20021;-79
2021/09/25 08:02:24;;;;;;;6.97;4.93;;;615.30;2432.00;;;;;;5062107;28;20108;-79
2021/09/25 08:04:49;;;;;;;12.13;5.93;;;615.30;2432.00;;;;;;5074467;28;20789;-81
2021/09/25 08:07:15;;;;;;;8.50;5.05;;;640.00;2432.00;;;;;;5107118;28;20031;-80
2021/09/25 08:09:41;;;;;;;7.00;5.05;;;640.20;2432.00;;;;;;5104830;28;20085;-79
2021/09/25 08:12:07;;;;;;;9.45;4.70;;;640.30;2432.00;;;;;;5085711;28;20023;-78
2021/09/25 08:14:32;;;;;;;5.88;4.32;;;640.40;2432.00;;;;;;5107656;28;20024;-81
2021/09/25 08:16:59;;;;;;;9.55;6.03;;;640.50;2432.00;;;;;;5094704;28;20112;-79
2021/09/25 08:19:24;;;;;;;7.43;5.28;;;640.80;2432.00;;;;;;5087733;28;20516;-80
2021/09/25 08:21:50;;;;;;;6.35;3.70;;;665.70;2432.00;;;;;;5104939;28;20024;-80
2021/09/25 08:24:17;;;;;;;6.03;3.80;;;665.60;2432.00;;;;;;5092763;28;20334;-79
2021/09/25 08:26:42;;;;;;;4.38;3.00;;;640.80;2432.00;;;;;;5083072;28;20772;-79
2021/09/25 08:29:08;;;;;;;8.60;4.65;;;665.90;2432.00;;;;;;5085793;28;20032;-79
2021/09/25 08:31:34;;;;;;;4.60;3.25;;;666.00;2432.00;;;;;;5107355;28;20019;-79
2021/09/25 08:34:00;;;;;;;5.95;4.03;;;666.40;2432.00;;;;;;5103715;28;20031;-78
2021/09/25 08:36:26;;;;;;;17.15;4.57;;;666.50;2432.00;;;;;;5092671;28;20052;-78
2021/09/25 08:38:51;;;;;;;5.43;2.88;;;691.50;2406.40;;;;;;5107065;28;20851;-79
2021/09/25 08:41:18;;;;;;;4.40;2.97;;;691.70;2355.20;;;;;;5094523;28;20128;-78
2021/09/25 08:43:44;;;;;;;5.63;3.30;;;691.90;2304.00;;;;;;5110831;28;20019;-77
2021/09/25 08:46:10;;;;;;;6.53;3.45;;;717.00;2278.40;;;;;;5118686;27;20027;-77
2021/09/25 08:48:38;;;;;;;7.97;4.38;;;717.30;2227.20;;;;;;5084905;28;20019;-78
2021/09/25 08:51:04;;;;;;;5.53;3.00;;;717.30;2201.60;;;;;;5084213;28;20023;-78
2021/09/25 08:53:30;;;;;;;5.45;2.47;;;717.40;2176.00;;;;;;5084188;28;20042;-78
2021/09/25 08:55:56;;;;;;;3.45;2.88;;;717.10;2176.00;;;;;;5102596;28;20073;-78
2021/09/25 08:58:22;;;;;;;6.85;4.70;;;717.50;2150.40;;;;;;5117486;27;20032;-79
2021/09/25 09:00:49;;;;;;;6.75;3.20;;;717.40;2099.20;;;;;;5108086;28;20027;-79
2021/09/25 09:03:44;;;;;;;3.53;2.85;;;742.40;2073.60;;;;;;5099621;28;20024;-78
2021/09/25 09:06:16;;;;;;;5.18;3.63;;;742.90;2048.00;;;;;;5101162;28;20422;-78
2021/09/25 09:08:44;;;;;;;5.43;3.78;;;742.90;2022.40;;;;;;5088578;28;20032;-79
2021/09/25 09:11:12;;;;;;;6.80;3.95;;;742.90;2022.40;;;;;;5083236;28;20024;-79
2021/09/25 09:13:40;;;;;;;4.78;3.10;;;743.30;1996.80;;;;;;5082168;28;20472;-78
2021/09/25 09:16:07;;;;;;;10.70;6.13;;;768.20;1945.60;;;;;;5091607;28;20055;-78
2021/09/25 09:18:41;;;;;;;5.47;3.25;;;768.20;1945.60;;;;;;5086999;28;20032;-79
2021/09/25 09:21:10;;;;;;;5.97;3.92;;;768.50;1920.00;;;;;;5104403;28;20073;-79
2021/09/25 09:23:39;;;;;;;7.85;3.83;;;768.30;1920.00;;;;;;5106052;28;20077;-80
2021/09/25 09:26:06;;;;;;;5.70;3.25;;;768.30;1894.40;;;;;;5107207;28;20016;-80
2021/09/25 09:28:35;;;;;;;7.00;3.40;;;768.40;1868.80;;;;;;5101715;28;20111;-80
2021/09/25 09:31:03;;;;;;;4.45;3.03;;;768.10;1894.40;;;;;;5083721;28;20020;-79
2021/09/25 09:33:38;;;;;;;8.15;4.20;;;768.20;1894.40;;;;;;5100435;27;20077;-81
2021/09/25 09:36:35;;;;;;;7.03;3.10;;;768.50;1868.80;;;;;;5107684;28;20020;-76
2021/09/25 09:39:03;;;;;;;5.70;3.58;;;768.80;1843.20;;;;;;5103137;28;20024;-76
2021/09/25 09:41:33;;;;;;;7.20;3.97;;;793.70;1843.20;;;;;;5099983;28;20071;-77
2021/09/25 09:44:05;;;;;;;11.73;7.43;;;793.80;1817.60;;;;;;5107258;28;20077;-78
2021/09/25 09:46:36;;;;;;;4.20;2.70;;;794.10;1792.00;;;;;;5112289;28;20024;-78
2021/09/25 09:49:02;;;;;;;8.45;6.18;;;793.60;1792.00;;;;;;5082065;28;20064;-77
2021/09/25 09:51:42;;;;;;;6.35;3.28;;;794.30;1766.40;;;;;;5097256;28;20023;-77
2021/09/25 09:54:18;;;;;;;5.90;3.65;;;819.20;1740.80;;;;;;5084340;28;20032;-78
2021/09/25 09:56:44;;;;;;;6.10;3.40;;;819.40;1715.20;;;;;;5109181;27;20107;-78
2021/09/25 09:59:12;;;;;;;7.97;3.53;;;819.20;1715.20;;;;;;5110457;28;20024;-77
2021/09/25 10:01:39;;;;;;;6.72;4.07;;;819.20;1715.20;;;;;;5104072;28;20030;-78
2021/09/25 10:04:06;;;;;;;5.53;3.42;;;819.90;1664.00;;;;;;5091730;28;20016;-78
2021/09/25 10:06:36;;;;;;;4.88;3.15;;;844.80;1638.40;;;;;;5081647;28;20380;-78
2021/09/25 10:09:08;;;;;;;4.53;3.35;;;845.30;1612.80;;;;;;5102510;28;20024;-78
2021/09/25 10:11:36;;;;;;;4.32;2.63;;;845.00;1638.40;;;;;;5102249;28;20028;-78
2021/09/25 10:14:03;;;;;;;3.60;3.17;;;845.10;1612.80;;;;;;5085549;28;20412;-77
2021/09/25 10:16:29;;;;;;;6.35;3.33;;;845.00;1587.20;;;;;;5104715;28;20038;-77
2021/09/25 10:18:56;;;;;;;4.57;3.40;;;845.50;1561.60;;;;;;5105461;28;20034;-81
2021/09/25 10:21:24;;;;;;;4.13;2.50;;;870.60;1536.00;;;;;;5091654;28;20522;-77
2021/09/25 10:23:58;;;;;;;3.85;2.60;;;845.30;1536.00;;;;;;5080241;28;20051;-81
2021/09/25 10:26:25;;;;;;;4.72;2.72;;;845.00;1587.20;;;;;;5109274;28;20032;-80
2021/09/25 10:29:06;;;;;;;5.60;3.22;;;845.10;1561.60;;;;;;5078654;28;20020;-79
2021/09/25 10:31:33;;;;;;;3.53;2.90;;;870.40;1510.40;;;;;;5083016;28;20161;-78
2021/09/25 10:34:15;;;;;;;3.97;2.83;;;845.40;1536.00;;;;;;5086356;28;20028;-76
2021/09/25 10:36:52;;;;;;;6.95;5.72;;;870.40;1536.00;;;;;;5105953;28;20032;-76
2021/09/25 10:39:29;;;;;;;5.22;3.00;;;870.70;1484.80;;;;;;5103140;28;20020;-75
2021/09/25 10:42:10;;;;;;;9.85;5.75;;;870.80;1484.80;;;;;;5104988;28;20490;-76
2021/09/25 10:44:45;;;;;;;5.18;3.05;;;871.10;1459.20;;;;;;5097056;28;20028;-76
2021/09/25 10:47:20;;;;;;;5.07;3.30;;;871.30;1433.60;;;;;;5107063;28;20081;-76
2021/09/25 10:50:13;;;;;;;5.68;3.03;;;871.00;1459.20;;;;;;5080987;28;20038;-77
2021/09/25 10:53:07;;;;;;;13.95;7.68;;;871.00;1459.20;;;;;;5105729;28;20027;-77
2021/09/25 10:55:36;;;;;;;3.85;2.92;;;896.00;1408.00;;;;;;5101169;28;20175;-77
2021/09/25 10:58:12;;;;;;;5.00;3.90;;;896.00;1382.40;;;;;;5122046;27;20023;-77
2021/09/25 11:00:48;;;;;;;6.07;3.65;;;896.30;1382.40;;;;;;5081446;28;20421;-77
2021/09/25 11:03:56;;;;;;;4.40;3.05;;;871.30;1382.40;;;;;;5081500;28;20434;-76
2021/09/25 11:06:28;;;;;;;5.88;2.80;;;871.30;1408.00;;;;;;5027930;28;20052;-77
2021/09/25 11:09:03;;;;;;;5.50;3.50;;;870.90;1408.00;;;;;;5009122;28;20466;-78
2021/09/25 11:11:31;;;;;;;;;;;871.30;1408.00;;;;;;5011376;28;20083;-77
2021/09/25 11:14:10;;;;;;;8.45;7.03;;;896.00;1382.40;;;;;;5028101;28;19909;-77
2021/09/25 11:17:12;;;;;;;4.72;4.05;;;896.70;1356.80;;;;;;5026174;28;20041;-77
2021/09/25 11:19:39;;;;;;;4.80;3.28;;;896.80;1356.80;;;;;;5028359;28;20060;-76
2021/09/25 11:22:19;;;;;;;5.97;2.80;;;921.70;1356.80;;;;;;5027709;28;20547;-76
2021/09/25 11:24:56;;;;;;;3.83;2.85;;;896.30;1356.80;;;;;;5013178;28;20229;-76
2021/09/25 11:27:41;;;;;;;6.68;5.80;;;896.30;1356.80;;;;;;5013530;28;20030;-76
2021/09/25 11:30:20;;;;;;;71.97;55.58;;;896.90;1305.60;;;;;;5029936;28;20025;-75
2021/09/25 11:32:57;;;;;;;19.27;15.00;;;896.90;1305.60;;;;;;5029832;28;20040;-75
2021/09/25 11:35:37;;;;;;;9.07;6.32;;;921.80;1331.20;;;;;;5030896;28;20049;-75
2021/09/25 11:38:10;;;;;;;6.93;3.75;;;947.20;1305.60;;;;;;5030710;28;20161;-76
2021/09/25 11:40:42;;;;;;;7.95;3.88;;;947.20;1280.00;;;;;;5031115;28;20064;-75
2021/09/25 11:43:13;;;;;;;5.07;3.85;;;947.20;1280.00;;;;;;5098481;28;20043;-75
2021/09/25 11:45:45;;;;;;;7.32;5.80;;;947.40;1280.00;;;;;;5103795;28;20057;-75
2021/09/25 11:48:13;;;;;;;10.05;7.40;;;922.40;1280.00;;;;;;5120599;27;20116;-75
2021/09/25 11:50:44;;;;;;;12.40;9.00;;;947.60;1254.40;;;;;;5088392;28;20024;-75
2021/09/25 11:53:13;;;;;;;9.68;6.72;;;947.70;1280.00;;;;;;5088751;28;20035;-76
2021/09/25 11:55:41;;;;;;;5.38;4.78;;;947.60;1228.80;;;;;;5109869;28;20503;-76
2021/09/25 11:58:09;;;;;;;8.05;4.43;;;947.70;1228.80;;;;;;5089099;28;20796;-76
2021/09/25 12:00:48;;;;;;;4.18;3.28;;;947.60;1254.40;;;;;;5087308;28;20032;-76
2021/09/25 12:03:17;;;;;;;5.00;3.30;;;947.40;1228.80;;;;;;5086516;28;20077;-77
2021/09/25 12:05:45;;;;;;;8.90;5.18;;;947.20;1254.40;;;;;;5086120;28;20054;-77
2021/09/25 12:08:14;;;;;;;5.20;2.83;;;947.20;1228.80;;;;;;5082555;28;20060;-76
2021/09/25 12:10:45;;;;;;;4.65;3.42;;;922.40;1254.40;;;;;;5084963;28;20432;-77
2021/09/25 12:13:18;;;;;;;6.00;3.08;;;922.10;1254.40;;;;;;5112016;28;20069;-77